createdAt,value
2023-04-09T00:00:39.482Z,40.35
2023-04-09T00:03:06.024Z,39.78
2023-04-09T00:05:32.604Z,39.70
2023-04-09T00:07:59.131Z,39.30
2023-04-09T00:10:25.969Z,44.58
2023-04-09T00:12:52.592Z,44.28
2023-04-09T00:15:28.148Z,42.15
2023-04-09T00:17:57.587Z,40.77
2023-04-09T00:20:24.157Z,38.90
2023-04-09T00:22:51.717Z,39.75
2023-04-09T00:25:18.602Z,42.97
2023-04-09T00:27:45.240Z,41.30
2023-04-09T00:30:11.890Z,42.93
2023-04-09T00:32:38.415Z,42.35
2023-04-09T00:35:05.352Z,35.92
2023-04-09T00:37:31.911Z,41.88
2023-04-09T00:39:58.466Z,40.67
2023-04-09T00:42:24.888Z,40.43
2023-04-09T00:44:51.934Z,37.17
2023-04-09T00:47:18.657Z,37.10
2023-04-09T00:49:45.314Z,38.67
2023-04-09T00:52:12.258Z,34.40
2023-04-09T00:54:38.729Z,37.10
2023-04-09T00:57:05.255Z,35.45
2023-04-09T00:59:32.486Z,34.75
2023-04-09T01:01:59.102Z,36.08
2023-04-09T01:04:25.729Z,39.50
2023-04-09T01:07:01.936Z,36.00
2023-04-09T01:09:33.424Z,35.38
2023-04-09T01:12:14.788Z,37.47
2023-04-09T01:15:09.734Z,35.20
2023-04-09T01:17:44.378Z,37.70
2023-04-09T01:20:32.976Z,35.53
2023-04-09T01:23:02.360Z,36.72
2023-04-09T01:26:16.830Z,34.85
2023-04-09T01:28:53.807Z,36.38
2023-04-09T01:31:25.205Z,33.38
2023-04-09T01:33:52.456Z,33.63
2023-04-09T01:36:19.860Z,36.35
2023-04-09T01:38:48.569Z,36.47
2023-04-09T01:41:17.990Z,38.42
2023-04-09T01:43:45.737Z,36.30
2023-04-09T01:46:13.388Z,31.73
2023-04-09T01:48:40.535Z,35.08
2023-04-09T01:51:07.117Z,38.75
2023-04-09T01:53:33.610Z,34.33
2023-04-09T01:56:01.393Z,33.65
2023-04-09T01:58:27.926Z,33.87
2023-04-09T02:01:06.550Z,35.75
2023-04-09T02:03:42.971Z,33.03
2023-04-09T02:06:16.059Z,39.80
2023-04-09T02:08:47.798Z,33.90
2023-04-09T02:11:15.934Z,34.93
2023-04-09T02:13:43.105Z,36.88
2023-04-09T02:16:11.615Z,35.40
2023-04-09T02:18:38.315Z,37.45
2023-04-09T02:21:05.959Z,34.88
2023-04-09T02:23:33.493Z,40.90
2023-04-09T02:26:00.036Z,36.92
2023-04-09T02:28:26.650Z,33.92
2023-04-09T02:30:53.505Z,35.67
2023-04-09T02:33:20.053Z,32.10
2023-04-09T02:35:46.536Z,35.10
2023-04-09T02:38:14.566Z,37.15
2023-04-09T02:40:41.401Z,38.65
2023-04-09T02:43:09.669Z,35.58
2023-04-09T02:45:36.652Z,42.67
2023-04-09T02:48:03.818Z,37.23
2023-04-09T02:50:34.309Z,37.78
2023-04-09T02:53:00.940Z,34.05
2023-04-09T02:55:27.517Z,35.25
2023-04-09T02:57:54.023Z,31.52
2023-04-09T03:00:20.528Z,34.07
2023-04-09T03:02:47.237Z,31.65
2023-04-09T03:05:14.013Z,33.72
2023-04-09T03:07:40.665Z,36.17
2023-04-09T03:10:07.612Z,37.92
2023-04-09T03:12:34.062Z,33.30
2023-04-09T03:15:00.665Z,34.90
2023-04-09T03:17:27.310Z,36.90
2023-04-09T03:19:54.036Z,35.42
2023-04-09T03:22:21.030Z,34.65
2023-04-09T03:24:50.396Z,28.97
2023-04-09T03:27:16.953Z,31.60
2023-04-09T03:29:43.949Z,36.03
2023-04-09T03:32:10.830Z,35.67
2023-04-09T03:34:37.313Z,34.30
2023-04-09T03:37:04.721Z,32.00
2023-04-09T03:39:31.957Z,31.48
2023-04-09T03:41:58.933Z,30.08
2023-04-09T03:44:29.704Z,30.88
2023-04-09T03:47:07.631Z,29.08
2023-04-09T03:49:36.010Z,29.27
2023-04-09T03:52:12.240Z,31.23
2023-04-09T03:54:43.535Z,29.67
2023-04-09T03:57:15.510Z,30.73
2023-04-09T03:59:45.303Z,31.65
2023-04-09T04:02:14.149Z,28.33
2023-04-09T04:04:46.389Z,29.50
2023-04-09T04:07:13.044Z,30.30
2023-04-09T04:09:48.060Z,30.67
2023-04-09T04:12:17.242Z,29.90
2023-04-09T04:15:02.600Z,29.70
2023-04-09T04:17:35.472Z,32.95
2023-04-09T04:20:04.947Z,32.38
2023-04-09T04:22:37.313Z,29.50
2023-04-09T04:25:04.968Z,31.33
2023-04-09T04:27:31.465Z,32.77
2023-04-09T04:29:59.010Z,31.15
2023-04-09T04:32:37.477Z,32.25
2023-04-09T04:35:08.835Z,31.90
2023-04-09T04:37:35.985Z,27.02
2023-04-09T04:40:02.884Z,30.67
2023-04-09T04:42:32.286Z,29.50
2023-04-09T04:45:01.427Z,30.60
2023-04-09T04:47:50.464Z,33.08
2023-04-09T04:50:17.138Z,27.35
2023-04-09T04:52:53.495Z,27.63
2023-04-09T04:55:22.864Z,29.15
2023-04-09T04:57:52.509Z,28.92
2023-04-09T05:00:22.584Z,29.15
2023-04-09T05:02:49.290Z,28.70
2023-04-09T05:05:25.706Z,27.93
2023-04-09T05:07:56.242Z,31.65
2023-04-09T05:10:23.417Z,29.05
2023-04-09T05:12:50.053Z,29.85
2023-04-09T05:15:27.571Z,30.00
2023-04-09T05:17:54.488Z,30.73
2023-04-09T05:20:22.006Z,31.30
2023-04-09T05:23:02.807Z,29.80
2023-04-09T05:25:34.349Z,31.02
2023-04-09T05:28:02.684Z,29.92
2023-04-09T05:30:30.961Z,29.40
2023-04-09T05:33:01.086Z,30.08
2023-04-09T05:35:28.458Z,32.65
2023-04-09T05:37:55.129Z,31.80
2023-04-09T05:40:21.810Z,29.05
2023-04-09T05:42:49.453Z,30.53
2023-04-09T05:45:36.052Z,29.58
2023-04-09T05:48:02.916Z,30.40
2023-04-09T05:50:29.672Z,32.28
2023-04-09T05:52:57.084Z,31.27
2023-04-09T05:55:32.027Z,31.93
2023-04-09T05:58:00.739Z,30.52
2023-04-09T06:00:27.263Z,29.90
2023-04-09T06:02:53.798Z,29.35
2023-04-09T06:05:20.287Z,28.55
2023-04-09T06:07:48.198Z,31.27
2023-04-09T06:10:14.910Z,32.97
2023-04-09T06:12:41.690Z,29.02
2023-04-09T06:15:09.339Z,30.58
2023-04-09T06:17:36.039Z,32.30
2023-04-09T06:20:02.719Z,29.33
2023-04-09T06:22:29.242Z,35.15
2023-04-09T06:24:55.794Z,29.63
2023-04-09T06:27:22.789Z,31.42
2023-04-09T06:29:49.301Z,33.13
2023-04-09T06:32:15.973Z,31.30
2023-04-09T06:34:42.454Z,32.60
2023-04-09T06:37:09.062Z,32.72
2023-04-09T06:39:36.520Z,31.88
2023-04-09T06:42:04.028Z,34.42
2023-04-09T06:44:40.929Z,32.73
2023-04-09T06:47:08.903Z,31.13
2023-04-09T06:49:35.804Z,30.17
2023-04-09T06:52:02.307Z,35.00
2023-04-09T06:54:28.784Z,32.75
2023-04-09T06:56:55.316Z,30.10
2023-04-09T06:59:21.803Z,31.40
2023-04-09T07:01:48.416Z,30.27
2023-04-09T07:04:15.037Z,31.60
2023-04-09T07:06:41.562Z,33.78
2023-04-09T07:09:08.082Z,32.60
2023-04-09T07:11:34.597Z,31.65
2023-04-09T07:14:01.068Z,34.53
2023-04-09T07:16:27.561Z,31.75
2023-04-09T07:18:54.055Z,32.20
2023-04-09T07:21:20.738Z,29.60
2023-04-09T07:23:47.856Z,31.90
2023-04-09T07:26:14.358Z,31.55
2023-04-09T07:28:42.246Z,34.20
2023-04-09T07:31:09.419Z,33.05
2023-04-09T07:33:35.921Z,32.67
2023-04-09T07:36:02.509Z,36.47
2023-04-09T07:38:30.345Z,32.08
2023-04-09T07:40:57.007Z,32.70
2023-04-09T07:43:23.478Z,30.17
2023-04-09T07:45:51.657Z,30.73
2023-04-09T07:48:18.167Z,33.75
2023-04-09T07:50:48.291Z,31.60
2023-04-09T07:53:14.886Z,30.33
2023-04-09T07:55:41.403Z,33.40
2023-04-09T07:58:07.826Z,34.70
2023-04-09T08:00:34.332Z,32.67
2023-04-09T08:03:01.839Z,31.52
2023-04-09T08:05:28.890Z,33.72
2023-04-09T08:07:55.429Z,34.03
2023-04-09T08:10:21.930Z,31.87
2023-04-09T08:12:48.987Z,33.72
2023-04-09T08:15:15.526Z,34.08
2023-04-09T08:17:42.084Z,31.77
2023-04-09T08:20:09.052Z,34.47
2023-04-09T08:22:35.544Z,32.27
2023-04-09T08:25:02.982Z,33.95
2023-04-09T08:27:29.621Z,31.50
2023-04-09T08:29:56.243Z,33.50
2023-04-09T08:32:22.962Z,30.83
2023-04-09T08:34:49.497Z,33.13
2023-04-09T08:37:16.584Z,32.83
2023-04-09T08:39:43.077Z,32.92
2023-04-09T08:42:12.459Z,30.20
2023-04-09T08:44:38.968Z,31.80
2023-04-09T08:47:10.253Z,31.27
2023-04-09T08:49:36.883Z,30.38
2023-04-09T08:52:03.697Z,29.55
2023-04-09T08:54:30.251Z,27.80
2023-04-09T08:56:57.505Z,27.13
2023-04-09T08:59:24.487Z,25.40
2023-04-09T09:02:07.905Z,26.80
2023-04-09T09:04:55.051Z,26.55
2023-04-09T09:07:21.556Z,27.10
2023-04-09T09:09:56.243Z,29.17
2023-04-09T09:12:39.523Z,28.60
2023-04-09T09:15:26.891Z,25.23
2023-04-09T09:17:58.653Z,24.98
2023-04-09T09:20:26.556Z,30.10
2023-04-09T09:22:55.825Z,27.45
2023-04-09T09:25:24.613Z,25.13
2023-04-09T09:27:52.059Z,27.25
2023-04-09T09:30:23.395Z,25.70
2023-04-09T09:32:54.962Z,26.05
2023-04-09T09:35:21.787Z,28.60
2023-04-09T09:37:48.334Z,23.30
2023-04-09T09:40:28.002Z,26.48
2023-04-09T09:42:58.153Z,24.52
2023-04-09T09:45:25.642Z,24.75
2023-04-09T09:47:52.944Z,24.42
2023-04-09T09:50:23.486Z,24.90
2023-04-09T09:52:51.142Z,26.60
2023-04-09T09:55:18.396Z,25.02
2023-04-09T09:57:47.194Z,23.23
2023-04-09T10:00:14.840Z,25.48
2023-04-09T10:02:53.391Z,25.53
2023-04-09T10:05:24.983Z,24.70
2023-04-09T10:07:51.999Z,22.60
2023-04-09T10:10:18.697Z,22.83
2023-04-09T10:12:45.366Z,21.92
2023-04-09T10:15:12.103Z,20.00
2023-04-09T10:17:38.911Z,22.02
2023-04-09T10:20:12.819Z,22.52
2023-04-09T10:22:40.162Z,20.05
2023-04-09T10:25:07.139Z,21.88
2023-04-09T10:27:33.572Z,21.93
2023-04-09T10:30:01.521Z,24.23
2023-04-09T10:32:36.016Z,23.30
2023-04-09T10:35:04.159Z,21.88
2023-04-09T10:37:30.919Z,20.02
2023-04-09T10:39:57.771Z,21.10
2023-04-09T10:42:30.304Z,19.02
2023-04-09T10:45:08.879Z,19.58
2023-04-09T10:47:37.631Z,20.50
2023-04-09T10:50:20.322Z,20.92
2023-04-09T10:52:47.842Z,17.57
2023-04-09T10:55:36.136Z,18.67
2023-04-09T10:58:07.554Z,16.88
2023-04-09T11:00:40.872Z,16.08
2023-04-09T11:03:20.385Z,13.88
2023-04-09T11:06:09.398Z,15.60
2023-04-09T11:08:37.918Z,13.90
2023-04-09T11:11:04.939Z,15.07
2023-04-09T11:13:32.069Z,14.10
2023-04-09T11:16:00.136Z,16.33
2023-04-09T11:18:28.462Z,13.87
2023-04-09T11:21:00.779Z,14.15
2023-04-09T11:23:27.766Z,13.25
2023-04-09T11:25:55.222Z,14.45
2023-04-09T11:28:23.996Z,14.98
2023-04-09T11:30:51.675Z,13.27
2023-04-09T11:33:20.066Z,13.88
2023-04-09T11:35:47.214Z,14.70
2023-04-09T11:38:13.850Z,15.13
2023-04-09T11:40:47.741Z,15.77
2023-04-09T11:43:16.506Z,14.97
2023-04-09T11:45:43.352Z,14.30
2023-04-09T11:48:10.851Z,14.40
2023-04-09T11:50:37.638Z,15.13
2023-04-09T11:53:37.244Z,13.13
2023-04-09T11:56:04.134Z,15.67
2023-04-09T11:58:30.636Z,13.63
2023-04-09T12:01:00.452Z,14.32
2023-04-09T12:03:32.952Z,15.25
2023-04-09T12:06:01.799Z,15.98
2023-04-09T12:08:28.241Z,14.27
2023-04-09T12:10:54.824Z,14.07
2023-04-09T12:13:21.620Z,12.88
2023-04-09T12:15:49.642Z,13.70
2023-04-09T12:18:16.282Z,14.38
2023-04-09T12:20:44.279Z,12.80
2023-04-09T12:23:12.111Z,13.68
2023-04-09T12:25:40.802Z,12.35
2023-04-09T12:28:08.790Z,12.82
2023-04-09T12:30:36.014Z,12.45
2023-04-09T12:33:03.987Z,12.43
2023-04-09T12:35:31.051Z,12.00
2023-04-09T12:37:59.179Z,11.38
2023-04-09T12:40:25.748Z,11.27
2023-04-09T12:42:52.253Z,11.95
2023-04-09T12:45:20.171Z,11.13
2023-04-09T12:47:46.888Z,11.93
2023-04-09T12:50:15.090Z,11.95
2023-04-09T12:52:42.457Z,11.95
2023-04-09T12:55:09.923Z,11.55
2023-04-09T12:57:38.004Z,12.23
2023-04-09T13:00:06.001Z,12.63
2023-04-09T13:02:32.641Z,12.20
2023-04-09T13:04:59.291Z,12.75
2023-04-09T13:07:29.087Z,11.90
2023-04-09T13:09:56.710Z,11.90
2023-04-09T13:12:23.880Z,13.00
2023-04-09T13:14:52.683Z,12.02
2023-04-09T13:17:19.283Z,12.15
2023-04-09T13:19:46.141Z,13.73
2023-04-09T13:22:12.774Z,11.57
2023-04-09T13:24:39.630Z,12.90
2023-04-09T13:27:09.116Z,12.45
2023-04-09T13:29:36.000Z,10.45
2023-04-09T13:32:06.910Z,12.02
2023-04-09T13:34:34.905Z,11.27
2023-04-09T13:37:02.505Z,12.15
2023-04-09T13:39:29.197Z,11.10
2023-04-09T13:41:56.264Z,11.00
2023-04-09T13:44:24.211Z,10.25
2023-04-09T13:46:50.896Z,12.10
2023-04-09T13:49:17.773Z,11.32
2023-04-09T13:51:44.498Z,11.63
2023-04-09T13:54:11.279Z,12.93
2023-04-09T13:56:38.974Z,11.48
2023-04-09T13:59:06.306Z,11.53
2023-04-09T14:01:34.329Z,12.02
2023-04-09T14:04:01.043Z,12.25
2023-04-09T14:06:28.021Z,11.95
2023-04-09T14:08:54.671Z,11.30
2023-04-09T14:11:21.226Z,11.00
2023-04-09T14:13:48.323Z,12.20
2023-04-09T14:16:14.905Z,12.77
2023-04-09T14:18:41.662Z,12.20
2023-04-09T14:21:10.201Z,15.05
2023-04-09T14:23:37.497Z,12.47
2023-04-09T14:26:05.433Z,11.40
2023-04-09T14:28:32.143Z,12.48
2023-04-09T14:30:59.617Z,11.57
2023-04-09T14:33:26.760Z,12.27
2023-04-09T14:35:53.428Z,11.47
2023-04-09T14:38:20.078Z,14.02
2023-04-09T14:40:46.598Z,15.10
2023-04-09T14:43:13.137Z,12.20
2023-04-09T14:45:39.708Z,12.05
2023-04-09T14:48:06.380Z,13.37
2023-04-09T14:50:33.961Z,11.10
2023-04-09T14:53:01.455Z,10.50
2023-04-09T14:55:28.276Z,17.50
2023-04-09T14:57:54.884Z,11.43
2023-04-09T15:00:21.553Z,12.93
2023-04-09T15:02:48.496Z,12.48
2023-04-09T15:05:15.161Z,11.02
2023-04-09T15:07:41.893Z,10.68
2023-04-09T15:10:08.849Z,11.32
2023-04-09T15:12:35.262Z,9.77
2023-04-09T15:15:06.053Z,11.00
2023-04-09T15:17:32.609Z,12.48
2023-04-09T15:19:59.243Z,11.52
2023-04-09T15:22:25.752Z,11.68
2023-04-09T15:24:53.568Z,13.60
2023-04-09T15:27:20.444Z,14.80
2023-04-09T15:29:47.030Z,11.68
2023-04-09T15:32:13.786Z,12.70
2023-04-09T15:34:40.276Z,12.13
2023-04-09T15:37:06.762Z,12.17
2023-04-09T15:39:33.990Z,11.43
2023-04-09T15:42:02.113Z,10.20
2023-04-09T15:44:28.914Z,12.05
2023-04-09T15:46:56.039Z,10.60
2023-04-09T15:49:23.162Z,11.17
2023-04-09T15:51:49.770Z,10.50
2023-04-09T15:54:16.531Z,10.68
2023-04-09T15:56:43.000Z,10.27
2023-04-09T15:59:09.564Z,11.13
2023-04-09T16:01:36.393Z,12.17
2023-04-09T16:04:03.609Z,9.35
2023-04-09T16:06:30.217Z,10.07
2023-04-09T16:08:57.043Z,11.55
2023-04-09T16:11:23.712Z,9.38
2023-04-09T16:13:50.529Z,9.90
2023-04-09T16:16:17.063Z,9.68
2023-04-09T16:18:43.753Z,10.07
2023-04-09T16:21:10.571Z,11.07
2023-04-09T16:23:37.186Z,9.00
2023-04-09T16:26:03.877Z,10.50
2023-04-09T16:28:30.455Z,10.32
2023-04-09T16:30:57.017Z,9.70
2023-04-09T16:33:23.510Z,8.18
2023-04-09T16:35:50.045Z,10.15
2023-04-09T16:38:16.542Z,10.10
2023-04-09T16:40:43.358Z,8.60
2023-04-09T16:43:09.915Z,8.32
2023-04-09T16:45:36.415Z,8.70
2023-04-09T16:48:03.093Z,10.55
2023-04-09T16:50:29.601Z,8.87
2023-04-09T16:52:56.144Z,9.57
2023-04-09T16:55:22.743Z,8.85
2023-04-09T16:57:49.279Z,9.63
2023-04-09T17:00:17.672Z,9.85
2023-04-09T17:02:45.843Z,9.73
2023-04-09T17:05:12.545Z,9.45
2023-04-09T17:07:39.133Z,9.65
2023-04-09T17:10:06.424Z,9.95
2023-04-09T17:12:33.316Z,9.90
2023-04-09T17:15:00.886Z,9.57
2023-04-09T17:17:27.587Z,10.57
2023-04-09T17:19:54.439Z,9.10
2023-04-09T17:22:20.950Z,9.00
2023-04-09T17:24:47.977Z,9.13
2023-04-09T17:27:14.402Z,8.90
2023-04-09T17:29:41.001Z,9.18
2023-04-09T17:32:07.545Z,10.35
2023-04-09T17:34:34.094Z,10.02
2023-04-09T17:37:00.603Z,9.10
2023-04-09T17:39:29.285Z,9.97
2023-04-09T17:42:00.469Z,9.43
2023-04-09T17:44:27.032Z,9.30
2023-04-09T17:46:53.888Z,10.20
2023-04-09T17:49:22.346Z,9.70
2023-04-09T17:51:48.971Z,9.27
2023-04-09T17:54:15.480Z,8.88
2023-04-09T17:56:41.978Z,12.13
2023-04-09T17:59:08.658Z,10.20
2023-04-09T18:01:35.272Z,10.02
2023-04-09T18:04:02.163Z,10.60
2023-04-09T18:06:29.244Z,10.82
2023-04-09T18:08:55.815Z,10.82
2023-04-09T18:11:23.600Z,9.93
2023-04-09T18:13:52.813Z,9.93
2023-04-09T18:16:20.871Z,11.87
2023-04-09T18:18:47.527Z,10.45
2023-04-09T18:21:15.205Z,11.63
2023-04-09T18:23:41.713Z,10.80
2023-04-09T18:26:08.282Z,11.30
2023-04-09T18:28:35.405Z,10.63
2023-04-09T18:31:02.078Z,12.15
2023-04-09T18:33:28.742Z,11.63
2023-04-09T18:35:55.266Z,11.02
2023-04-09T18:38:21.840Z,9.85
2023-04-09T18:40:48.314Z,12.13
2023-04-09T18:43:14.813Z,10.38
2023-04-09T18:45:41.704Z,9.60
2023-04-09T18:48:08.975Z,12.73
2023-04-09T18:50:35.597Z,10.20
2023-04-09T18:53:03.592Z,10.90
2023-04-09T18:55:30.424Z,11.50
2023-04-09T18:57:57.449Z,13.00
2023-04-09T19:00:24.201Z,11.63
2023-04-09T19:02:51.057Z,9.70
2023-04-09T19:05:18.007Z,10.67
2023-04-09T19:07:44.536Z,10.45
2023-04-09T19:10:11.246Z,11.43
2023-04-09T19:12:38.057Z,10.88
2023-04-09T19:15:06.104Z,11.93
2023-04-09T19:17:33.923Z,13.23
2023-04-09T19:20:01.037Z,11.98
2023-04-09T19:22:28.094Z,12.65
2023-04-09T19:24:54.855Z,13.30
2023-04-09T19:27:21.370Z,13.32
2023-04-09T19:29:47.870Z,14.50
2023-04-09T19:32:14.705Z,13.48
2023-04-09T19:34:41.344Z,14.25
2023-04-09T19:37:07.992Z,14.93
2023-04-09T19:39:34.509Z,14.52
2023-04-09T19:42:01.003Z,13.67
2023-04-09T19:44:27.471Z,16.52
2023-04-09T19:46:54.060Z,16.30
2023-04-09T19:49:20.660Z,15.93
2023-04-09T19:51:47.550Z,15.13
2023-04-09T19:54:15.191Z,14.37
2023-04-09T19:56:42.451Z,14.60
2023-04-09T19:59:09.012Z,14.68
2023-04-09T20:01:36.085Z,15.50
2023-04-09T20:04:02.985Z,15.25
2023-04-09T20:06:30.766Z,16.20
2023-04-09T20:08:57.338Z,17.08
2023-04-09T20:11:23.842Z,18.30
2023-04-09T20:13:50.325Z,18.20
2023-04-09T20:16:17.035Z,21.20
2023-04-09T20:18:43.602Z,26.63
2023-04-09T20:21:14.061Z,23.85
2023-04-09T20:23:40.656Z,32.35
2023-04-09T20:26:09.752Z,33.65
2023-04-09T20:28:36.458Z,32.80
2023-04-09T20:31:04.016Z,38.57
2023-04-09T20:33:30.714Z,44.47
2023-04-09T20:35:57.342Z,41.00
2023-04-09T20:38:24.391Z,40.15
2023-04-09T20:40:52.598Z,42.72
2023-04-09T20:43:19.956Z,42.83
2023-04-09T20:45:46.894Z,40.60
2023-04-09T20:48:14.808Z,47.45
2023-04-09T20:50:41.305Z,50.67
2023-04-09T20:53:08.003Z,44.10
2023-04-09T20:55:35.690Z,55.83
2023-04-09T20:58:02.854Z,48.70
2023-04-09T21:00:29.669Z,59.22
2023-04-09T21:02:56.279Z,48.83
2023-04-09T21:05:24.141Z,48.83
2023-04-09T21:07:52.496Z,53.70
2023-04-09T21:10:19.373Z,43.83
2023-04-09T21:12:45.890Z,48.08
2023-04-09T21:15:12.478Z,52.92
2023-04-09T21:17:39.045Z,47.63
2023-04-09T21:20:06.175Z,54.20
2023-04-09T21:22:34.375Z,50.00
2023-04-09T21:25:01.167Z,49.63
2023-04-09T21:27:27.629Z,45.50
2023-04-09T21:29:54.582Z,46.53
2023-04-09T21:32:21.113Z,43.10
2023-04-09T21:34:47.688Z,48.38
2023-04-09T21:37:14.180Z,40.75
2023-04-09T21:39:40.802Z,48.10
2023-04-09T21:42:08.675Z,48.72
2023-04-09T21:44:35.318Z,47.00
2023-04-09T21:47:01.877Z,42.63
2023-04-09T21:49:28.518Z,47.88
2023-04-09T21:51:55.743Z,44.83
2023-04-09T21:54:22.323Z,44.58
2023-04-09T21:56:48.791Z,48.00
2023-04-09T21:59:15.468Z,46.58
2023-04-09T22:01:42.206Z,48.35
2023-04-09T22:04:08.974Z,43.22
2023-04-09T22:06:35.639Z,47.38
2023-04-09T22:09:02.457Z,45.40
2023-04-09T22:11:29.223Z,46.30
2023-04-09T22:13:56.917Z,47.80
2023-04-09T22:16:24.221Z,48.08
2023-04-09T22:18:51.793Z,48.08
2023-04-09T22:21:18.434Z,46.57
2023-04-09T22:23:45.024Z,48.70
2023-04-09T22:26:11.575Z,45.22
2023-04-09T22:28:38.388Z,46.47
2023-04-09T22:31:05.774Z,46.88
2023-04-09T22:33:32.489Z,43.00
2023-04-09T22:36:00.240Z,46.20
2023-04-09T22:38:26.891Z,45.83
2023-04-09T22:40:53.380Z,43.08
2023-04-09T22:43:20.103Z,45.72
2023-04-09T22:45:54.674Z,42.07
2023-04-09T22:48:22.774Z,45.63
2023-04-09T22:50:50.075Z,45.45
2023-04-09T22:53:20.001Z,43.92
2023-04-09T22:55:48.705Z,48.83
2023-04-09T22:58:15.640Z,45.87
2023-04-09T23:00:42.529Z,42.75
2023-04-09T23:03:09.331Z,45.42
2023-04-09T23:05:36.201Z,42.75
2023-04-09T23:08:02.720Z,44.25
2023-04-09T23:10:29.210Z,45.87
2023-04-09T23:12:55.749Z,42.25
2023-04-09T23:15:22.299Z,42.22
2023-04-09T23:17:51.500Z,41.60
2023-04-09T23:20:18.328Z,41.17
2023-04-09T23:22:48.832Z,40.00
2023-04-09T23:25:16.045Z,38.50
2023-04-09T23:27:42.778Z,38.20
2023-04-09T23:30:10.047Z,37.83
2023-04-09T23:32:36.970Z,35.22
2023-04-09T23:35:04.153Z,37.43
2023-04-09T23:37:30.641Z,39.92
2023-04-09T23:39:57.138Z,35.33
2023-04-09T23:42:23.902Z,34.35
2023-04-09T23:44:50.518Z,35.10
2023-04-09T23:47:17.327Z,35.37
2023-04-09T23:49:44.625Z,34.17
2023-04-09T23:52:11.132Z,31.92
2023-04-09T23:54:37.632Z,34.45
2023-04-09T23:57:04.109Z,36.80
2023-04-09T23:59:33.865Z,33.03
